createdAt,value
2022-08-21T00:02:24.041Z,100206.00
2022-08-21T00:04:57.378Z,100208.00
2022-08-21T00:07:26.996Z,100205.00
2022-08-21T00:09:56.273Z,100202.00
2022-08-21T00:12:26.682Z,100211.00
2022-08-21T00:14:57.058Z,100210.00
2022-08-21T00:17:26.807Z,100203.00
2022-08-21T00:19:55.419Z,100208.00
2022-08-21T00:22:23.976Z,100199.00
2022-08-21T00:24:52.556Z,100203.00
2022-08-21T00:27:21.283Z,100204.00
2022-08-21T00:29:51.277Z,100200.00
2022-08-21T00:32:23.378Z,100202.00
2022-08-21T00:34:52.254Z,100207.00
2022-08-21T00:37:21.859Z,100208.00
2022-08-21T00:39:50.704Z,100206.00
2022-08-21T00:42:20.976Z,100206.00
2022-08-21T00:44:52.838Z,100210.00
2022-08-21T00:47:21.919Z,100210.00
2022-08-21T00:49:50.618Z,100208.00
2022-08-21T00:52:22.856Z,100207.00
2022-08-21T00:54:52.885Z,100207.00
2022-08-21T00:57:25.971Z,100211.00
2022-08-21T01:00:01.128Z,100219.00
2022-08-21T01:02:29.996Z,100215.00
2022-08-21T01:04:59.930Z,100218.00
2022-08-21T01:07:28.656Z,100213.00
2022-08-21T01:09:57.423Z,100208.00
2022-08-21T01:12:27.447Z,100215.00
2022-08-21T01:14:58.966Z,100212.00
2022-08-21T01:17:28.727Z,100207.00
2022-08-21T01:20:00.940Z,100217.00
2022-08-21T01:22:31.278Z,100217.00
2022-08-21T01:24:59.850Z,100210.00
2022-08-21T01:27:28.532Z,100210.00
2022-08-21T01:30:00.695Z,100214.00
2022-08-21T01:32:29.688Z,100210.00
2022-08-21T01:34:58.336Z,100209.00
2022-08-21T01:37:27.039Z,100212.00
2022-08-21T01:39:57.269Z,100218.00
2022-08-21T01:42:26.460Z,100215.00
2022-08-21T01:44:56.269Z,100217.00
2022-08-21T01:47:25.709Z,100215.00
2022-08-21T01:49:54.824Z,100218.00
2022-08-21T01:52:23.543Z,100218.00
2022-08-21T01:54:55.515Z,100220.00
2022-08-21T01:57:26.563Z,100216.00
2022-08-21T01:59:55.737Z,100218.00
2022-08-21T02:02:24.417Z,100210.00
2022-08-21T02:04:53.058Z,100218.00
2022-08-21T02:07:22.273Z,100212.00
2022-08-21T02:09:50.896Z,100209.00
2022-08-21T02:12:19.544Z,100201.00
2022-08-21T02:14:49.546Z,100200.00
2022-08-21T02:17:18.563Z,100199.00
2022-08-21T02:19:47.151Z,100205.00
2022-08-21T02:22:15.747Z,100200.00
2022-08-21T02:24:54.145Z,100209.00
2022-08-21T02:27:26.147Z,100198.00
2022-08-21T02:29:58.024Z,100203.00
2022-08-21T02:32:27.416Z,100196.00
2022-08-21T02:34:56.315Z,100199.00
2022-08-21T02:37:25.031Z,100204.00
2022-08-21T02:39:53.937Z,100192.00
2022-08-21T02:42:22.575Z,100189.00
2022-08-21T02:44:51.334Z,100178.00
2022-08-21T02:47:21.393Z,100188.00
2022-08-21T02:49:50.031Z,100178.00
2022-08-21T02:52:18.745Z,100190.00
2022-08-21T02:54:47.428Z,100190.00
2022-08-21T02:57:16.094Z,100178.00
2022-08-21T02:59:44.986Z,100190.00
2022-08-21T03:02:13.599Z,100185.00
2022-08-21T03:04:46.714Z,100187.00
2022-08-21T03:07:16.454Z,100180.00
2022-08-21T03:09:55.502Z,100182.00
2022-08-21T03:12:26.638Z,100188.00
2022-08-21T03:14:59.689Z,100191.00
2022-08-21T03:17:30.261Z,100195.00
2022-08-21T03:20:01.514Z,100198.00
2022-08-21T03:22:31.078Z,100190.00
2022-08-21T03:25:00.589Z,100194.00
2022-08-21T03:27:32.302Z,100203.00
2022-08-21T03:30:01.782Z,100196.00
2022-08-21T03:32:32.027Z,100192.00
2022-08-21T03:35:03.090Z,100195.00
2022-08-21T03:37:32.349Z,100197.00
2022-08-21T03:40:01.668Z,100212.00
2022-08-21T03:42:31.236Z,100206.00
2022-08-21T03:45:01.066Z,100210.00
2022-08-21T03:47:30.619Z,100206.00
2022-08-21T03:50:00.731Z,100193.00
2022-08-21T03:52:31.519Z,100197.00
2022-08-21T03:55:01.225Z,100198.00
2022-08-21T03:57:31.095Z,100203.00
2022-08-21T04:00:00.060Z,100204.00
2022-08-21T04:02:28.977Z,100209.00
2022-08-21T04:04:58.928Z,100211.00
2022-08-21T04:07:29.746Z,100211.00
2022-08-21T04:09:59.021Z,100210.00
2022-08-21T04:12:29.267Z,100210.00
2022-08-21T04:14:58.516Z,100215.00
2022-08-21T04:17:28.114Z,100213.00
2022-08-21T04:19:57.694Z,100220.00
2022-08-21T04:22:26.924Z,100225.00
2022-08-21T04:24:58.896Z,100229.00
2022-08-21T04:27:28.549Z,100219.00
2022-08-21T04:29:57.904Z,100221.00
2022-08-21T04:32:27.761Z,100216.00
2022-08-21T04:35:02.491Z,100220.00
2022-08-21T04:37:31.876Z,100224.00
2022-08-21T04:40:03.583Z,100233.00
2022-08-21T04:42:33.624Z,100234.00
2022-08-21T04:45:02.825Z,100228.00
2022-08-21T04:47:52.045Z,100233.00
2022-08-21T04:50:22.957Z,100232.00
2022-08-21T04:52:52.481Z,100234.00
2022-08-21T04:55:25.646Z,100226.00
2022-08-21T04:57:56.401Z,100234.00
2022-08-21T05:00:26.849Z,100232.00
2022-08-21T05:03:00.730Z,100235.00
2022-08-21T05:05:39.110Z,100237.00
2022-08-21T05:08:10.744Z,100239.00
2022-08-21T05:10:42.210Z,100245.00
2022-08-21T05:13:12.534Z,100249.00
2022-08-21T05:15:43.423Z,100255.00
2022-08-21T05:18:22.697Z,100257.00
2022-08-21T05:20:52.870Z,100265.00
2022-08-21T05:23:22.233Z,100275.00
2022-08-21T05:25:54.038Z,100272.00
2022-08-21T05:28:28.084Z,100264.00
2022-08-21T05:31:13.984Z,100260.00
2022-08-21T05:33:44.076Z,100259.00
2022-08-21T05:36:14.111Z,100266.00
2022-08-21T05:38:46.044Z,100264.00
2022-08-21T05:41:36.286Z,100267.00
2022-08-21T05:44:10.687Z,100269.00
2022-08-21T05:46:41.216Z,100266.00
2022-08-21T05:49:39.928Z,100261.00
2022-08-21T07:17:25.724Z,100270.00
2022-08-21T07:20:13.409Z,100277.00
2022-08-21T07:22:43.337Z,100275.00
2022-08-21T07:25:14.204Z,100276.00
2022-08-21T07:27:43.351Z,100274.00
2022-08-21T07:30:13.706Z,100266.00
2022-08-21T07:32:48.258Z,100278.00
2022-08-21T07:35:22.898Z,100273.00
2022-08-21T07:37:52.655Z,100283.00
2022-08-21T07:40:26.702Z,100284.00
2022-08-21T07:42:58.963Z,100284.00
2022-08-21T07:45:37.973Z,100277.00
2022-08-21T07:48:35.727Z,100282.00
2022-08-21T07:51:12.626Z,100268.00
2022-08-21T07:54:18.019Z,100270.00
2022-08-21T07:57:05.790Z,100272.00
2022-08-21T08:00:13.043Z,100271.00
2022-08-21T08:03:01.682Z,100274.00
2022-08-21T08:05:32.909Z,100286.00
2022-08-21T08:08:01.413Z,100276.00
2022-08-21T08:10:29.890Z,100283.00
2022-08-21T08:12:59.453Z,100281.00
2022-08-21T08:15:36.971Z,100285.00
2022-08-21T08:18:06.444Z,100278.00
2022-08-21T08:20:45.919Z,100283.00
2022-08-21T08:23:24.738Z,100289.00
2022-08-21T08:26:11.708Z,100288.00
2022-08-21T08:28:51.397Z,100292.00
2022-08-21T08:31:52.486Z,100296.00
2022-08-21T08:34:41.097Z,100301.00
2022-08-21T08:37:20.112Z,100302.00
2022-08-21T08:40:05.637Z,100309.00
2022-08-21T08:42:41.431Z,100299.00
2022-08-21T08:45:14.401Z,100308.00
2022-08-21T08:47:48.586Z,100309.00
2022-08-21T08:50:39.038Z,100310.00
2022-08-21T08:53:24.050Z,100317.00
2022-08-21T08:56:04.962Z,100314.00
2022-08-21T08:58:45.449Z,100309.00
2022-08-21T09:01:32.644Z,100308.00
2022-08-21T09:04:34.660Z,100302.00
2022-08-21T09:07:38.126Z,100307.00
2022-08-21T09:10:34.944Z,100312.00
2022-08-21T09:13:38.502Z,100312.00
2022-08-21T09:16:36.627Z,100318.00
2022-08-21T09:19:28.504Z,100310.00
2022-08-21T09:22:54.522Z,100303.00
2022-08-21T09:26:05.970Z,100299.00
2022-08-21T09:31:50.017Z,100296.00
2022-08-21T09:34:46.916Z,100295.00
2022-08-21T09:37:24.876Z,100294.00
2022-08-21T09:39:56.993Z,100289.00
2022-08-21T09:42:33.508Z,100296.00
2022-08-21T09:45:15.536Z,100285.00
2022-08-21T09:47:46.688Z,100283.00
2022-08-21T09:50:18.306Z,100284.00
2022-08-21T09:52:51.500Z,100280.00
2022-08-21T09:55:51.456Z,100281.00
2022-08-21T09:58:22.527Z,100277.00
2022-08-21T10:01:01.166Z,100284.00
2022-08-21T10:03:31.836Z,100286.00
2022-08-21T10:06:07.275Z,100279.00
2022-08-21T10:08:40.908Z,100281.00
2022-08-21T10:11:12.797Z,100276.00
2022-08-21T10:13:54.743Z,100281.00
2022-08-21T10:16:35.612Z,100284.00
2022-08-21T10:19:17.892Z,100275.00
2022-08-21T10:22:06.176Z,100281.00
2022-08-21T10:24:41.871Z,100276.00
2022-08-21T10:27:21.007Z,100276.00
2022-08-21T10:29:57.840Z,100280.00
2022-08-21T10:32:40.049Z,100279.00
2022-08-21T10:35:19.800Z,100286.00
2022-08-21T10:38:02.175Z,100282.00
2022-08-21T10:40:37.356Z,100283.00
2022-08-21T10:43:19.514Z,100292.00
2022-08-21T10:46:00.690Z,100288.00
2022-08-21T10:48:35.646Z,100284.00
2022-08-21T10:51:15.378Z,100288.00
2022-08-21T10:54:02.090Z,100289.00
2022-08-21T10:56:35.858Z,100288.00
2022-08-21T10:59:17.976Z,100284.00
2022-08-21T11:01:54.426Z,100291.00
2022-08-21T11:08:06.714Z,100288.00
2022-08-21T11:10:57.941Z,100280.00
2022-08-21T11:16:52.777Z,100278.00
2022-08-21T11:23:03.668Z,100282.00
2022-08-21T11:26:05.426Z,100285.00
2022-08-21T11:28:57.542Z,100288.00
2022-08-21T11:32:03.662Z,100286.00
2022-08-21T11:35:14.908Z,100282.00
2022-08-21T11:38:24.361Z,100285.00
2022-08-21T11:41:11.000Z,100282.00
2022-08-21T11:44:02.919Z,100279.00
2022-08-21T11:47:07.086Z,100278.00
2022-08-21T11:50:32.238Z,100287.00
2022-08-21T11:53:20.850Z,100278.00
2022-08-21T11:56:01.603Z,100277.00
2022-08-21T11:58:41.058Z,100278.00
2022-08-21T12:01:25.210Z,100269.00
2022-08-21T12:04:13.174Z,100271.00
2022-08-21T12:06:51.584Z,100271.00
2022-08-21T12:09:53.616Z,100266.00
2022-08-21T12:12:43.851Z,100266.00
2022-08-21T12:15:44.648Z,100271.00
2022-08-21T12:18:39.191Z,100267.00
2022-08-21T12:21:37.852Z,100263.00
2022-08-21T12:24:49.491Z,100259.00
2022-08-21T12:27:46.786Z,100265.00
2022-08-21T12:30:27.400Z,100263.00
2022-08-21T12:33:01.276Z,100267.00
2022-08-21T12:35:48.620Z,100267.00
2022-08-21T12:38:32.700Z,100257.00
2022-08-21T12:41:18.985Z,100261.00
2022-08-21T12:44:07.614Z,100262.00
2022-08-21T12:46:46.293Z,100267.00
2022-08-21T12:49:38.828Z,100257.00
2022-08-21T12:52:40.438Z,100256.00
2022-08-21T12:55:36.289Z,100257.00
2022-08-21T12:58:27.714Z,100256.00
2022-08-21T13:01:19.656Z,100259.00
2022-08-21T13:03:49.201Z,100263.00
2022-08-21T13:06:41.658Z,100250.00
2022-08-21T13:09:14.574Z,100251.00
2022-08-21T13:11:55.767Z,100238.00
2022-08-21T13:14:48.568Z,100251.00
2022-08-21T13:17:46.580Z,100248.00
2022-08-21T13:20:37.864Z,100239.00
2022-08-21T13:23:45.119Z,100239.00
2022-08-21T13:26:24.617Z,100246.00
2022-08-21T13:29:24.215Z,100243.00
2022-08-21T13:31:56.045Z,100248.00
2022-08-21T13:34:31.586Z,100247.00
2022-08-21T13:37:06.149Z,100246.00
2022-08-21T13:39:51.975Z,100253.00
2022-08-21T13:42:28.022Z,100243.00
2022-08-21T13:45:32.685Z,100244.00
2022-08-21T13:48:11.060Z,100241.00
2022-08-21T13:50:50.180Z,100240.00
2022-08-21T13:54:05.710Z,100239.00
2022-08-21T13:56:49.602Z,100248.00
2022-08-21T13:59:55.093Z,100246.00
2022-08-21T14:02:37.459Z,100248.00
2022-08-21T14:08:18.480Z,100242.00
2022-08-21T14:11:00.613Z,100249.00
2022-08-21T14:14:02.887Z,100253.00
2022-08-21T14:16:58.818Z,100244.00
2022-08-21T14:20:02.433Z,100247.00
2022-08-21T14:22:59.161Z,100243.00
2022-08-21T14:25:49.411Z,100239.00
2022-08-21T14:28:43.154Z,100233.00
2022-08-21T14:31:20.117Z,100224.00
2022-08-21T14:33:53.727Z,100239.00
2022-08-21T14:36:22.635Z,100223.00
2022-08-21T14:38:51.419Z,100226.00
2022-08-21T14:41:24.776Z,100226.00
2022-08-21T14:43:59.828Z,100231.00
2022-08-21T14:46:51.200Z,100229.00
2022-08-21T14:49:29.082Z,100228.00
2022-08-21T14:51:59.791Z,100229.00
2022-08-21T14:54:32.263Z,100228.00
2022-08-21T14:57:09.905Z,100231.00
2022-08-21T14:59:39.126Z,100221.00
2022-08-21T15:02:13.819Z,100230.00
2022-08-21T15:04:42.769Z,100236.00
2022-08-21T15:07:11.326Z,100229.00
2022-08-21T15:09:40.108Z,100234.00
2022-08-21T15:12:11.138Z,100224.00
2022-08-21T15:14:42.484Z,100236.00
2022-08-21T15:17:13.299Z,100227.00
2022-08-21T15:19:42.366Z,100230.00
2022-08-21T15:22:15.527Z,100222.00
2022-08-21T15:24:47.729Z,100221.00
2022-08-21T15:27:21.114Z,100233.00
2022-08-21T15:29:50.247Z,100222.00
2022-08-21T15:32:23.491Z,100215.00
2022-08-21T15:34:52.380Z,100225.00
2022-08-21T15:37:22.182Z,100225.00
2022-08-21T15:39:53.731Z,100229.00
2022-08-21T15:42:27.757Z,100229.00
2022-08-21T15:44:59.698Z,100227.00
2022-08-21T15:47:32.738Z,100218.00
2022-08-21T15:50:04.322Z,100220.00
2022-08-21T15:52:35.024Z,100230.00
2022-08-21T15:55:04.143Z,100228.00
2022-08-21T15:57:37.975Z,100222.00
2022-08-21T16:00:14.382Z,100221.00
2022-08-21T16:02:47.768Z,100227.00
2022-08-21T16:05:20.311Z,100221.00
2022-08-21T16:07:50.955Z,100220.00
2022-08-21T16:10:23.808Z,100209.00
2022-08-21T16:12:59.686Z,100210.00
2022-08-21T16:15:29.447Z,100210.00
2022-08-21T16:17:58.451Z,100219.00
2022-08-21T16:20:29.550Z,100218.00
2022-08-21T16:22:59.722Z,100217.00
2022-08-21T16:25:29.758Z,100224.00
2022-08-21T16:28:02.309Z,100215.00
2022-08-21T16:30:32.571Z,100211.00
2022-08-21T16:33:03.306Z,100216.00
2022-08-21T16:35:32.601Z,100213.00
2022-08-21T16:38:01.357Z,100213.00
2022-08-21T16:40:30.239Z,100217.00
2022-08-21T16:43:00.278Z,100216.00
2022-08-21T16:45:33.057Z,100208.00
2022-08-21T16:48:04.457Z,100205.00
2022-08-21T16:50:39.379Z,100206.00
2022-08-21T16:53:08.694Z,100214.00
2022-08-21T16:55:38.412Z,100207.00
2022-08-21T16:58:22.549Z,100211.00
2022-08-21T17:01:00.067Z,100203.00
2022-08-21T17:03:44.621Z,100203.00
2022-08-21T17:06:14.400Z,100205.00
2022-08-21T17:08:57.357Z,100204.00
2022-08-21T17:11:38.478Z,100204.00
2022-08-21T17:14:12.111Z,100199.00
2022-08-21T17:16:42.809Z,100201.00
2022-08-21T17:19:13.054Z,100207.00
2022-08-21T17:21:42.241Z,100199.00
2022-08-21T17:24:13.076Z,100204.00
2022-08-21T17:26:42.106Z,100202.00
2022-08-21T17:29:14.465Z,100203.00
2022-08-21T17:31:45.463Z,100205.00
2022-08-21T17:34:16.332Z,100204.00
2022-08-21T17:36:45.878Z,100199.00
2022-08-21T17:39:22.423Z,100210.00
2022-08-21T17:41:57.907Z,100207.00
2022-08-21T17:44:28.273Z,100206.00
2022-08-21T17:46:58.298Z,100210.00
2022-08-21T17:49:27.175Z,100215.00
2022-08-21T17:51:56.702Z,100218.00
2022-08-21T17:54:26.715Z,100213.00
2022-08-21T17:56:57.169Z,100213.00
2022-08-21T17:59:28.597Z,100212.00
2022-08-21T18:02:01.630Z,100215.00
2022-08-21T18:04:31.652Z,100217.00
2022-08-21T18:07:00.858Z,100213.00
2022-08-21T18:09:29.603Z,100217.00
2022-08-21T18:12:00.353Z,100213.00
2022-08-21T18:14:33.704Z,100221.00
2022-08-21T18:17:02.704Z,100226.00
2022-08-21T18:19:34.347Z,100234.00
2022-08-21T18:22:21.973Z,100230.00
2022-08-21T18:24:51.072Z,100236.00
2022-08-21T18:27:20.544Z,100233.00
2022-08-21T18:29:57.189Z,100229.00
2022-08-21T18:32:31.548Z,100229.00
2022-08-21T18:35:02.731Z,100227.00
2022-08-21T18:37:31.965Z,100229.00
2022-08-21T18:40:01.049Z,100224.00
2022-08-21T18:42:32.615Z,100227.00
2022-08-21T18:45:05.617Z,100229.00
2022-08-21T18:47:38.200Z,100232.00
2022-08-21T18:50:10.674Z,100227.00
2022-08-21T18:52:43.417Z,100224.00
2022-08-21T18:55:24.753Z,100234.00
2022-08-21T18:57:53.667Z,100233.00
2022-08-21T19:00:26.624Z,100235.00
2022-08-21T19:02:58.220Z,100240.00
2022-08-21T19:05:27.553Z,100243.00
2022-08-21T19:07:56.504Z,100247.00
2022-08-21T19:10:28.595Z,100244.00
2022-08-21T19:12:59.376Z,100244.00
2022-08-21T19:15:30.846Z,100245.00
2022-08-21T19:18:00.455Z,100248.00
2022-08-21T19:20:31.505Z,100250.00
2022-08-21T19:23:01.335Z,100249.00
2022-08-21T19:25:33.545Z,100249.00
2022-08-21T19:28:10.980Z,100245.00
2022-08-21T19:30:45.747Z,100247.00
2022-08-21T19:33:23.449Z,100256.00
2022-08-21T19:35:53.972Z,100245.00
2022-08-21T19:38:23.349Z,100253.00
2022-08-21T19:40:52.731Z,100250.00
2022-08-21T19:43:23.475Z,100253.00
2022-08-21T19:45:57.765Z,100249.00
2022-08-21T19:48:27.439Z,100247.00
2022-08-21T19:50:57.527Z,100250.00
2022-08-21T19:53:32.297Z,100253.00
2022-08-21T19:56:03.449Z,100245.00
2022-08-21T19:58:37.399Z,100252.00
2022-08-21T20:01:11.228Z,100248.00
2022-08-21T20:03:41.246Z,100251.00
2022-08-21T20:06:12.057Z,100246.00
2022-08-21T20:08:40.741Z,100247.00
2022-08-21T20:11:09.992Z,100252.00
2022-08-21T20:13:41.267Z,100244.00
2022-08-21T20:16:16.299Z,100244.00
2022-08-21T20:18:44.934Z,100235.00
2022-08-21T20:21:13.634Z,100232.00
2022-08-21T20:23:48.829Z,100238.00
2022-08-21T20:26:19.156Z,100227.00
2022-08-21T20:28:51.556Z,100236.00
2022-08-21T20:31:22.767Z,100222.00
2022-08-21T20:33:52.152Z,100227.00
2022-08-21T20:36:25.786Z,100229.00
2022-08-21T20:38:54.602Z,100233.00
2022-08-21T20:41:30.709Z,100234.00
2022-08-21T20:44:01.093Z,100234.00
2022-08-21T20:46:33.292Z,100234.00
2022-08-21T20:49:02.062Z,100230.00
2022-08-21T20:51:35.926Z,100229.00
2022-08-21T20:54:15.723Z,100227.00
2022-08-21T20:56:51.079Z,100222.00
2022-08-21T20:59:27.495Z,100224.00
2022-08-21T21:02:07.639Z,100231.00
2022-08-21T21:04:45.764Z,100231.00
2022-08-21T21:07:19.949Z,100226.00
2022-08-21T21:09:52.051Z,100226.00
2022-08-21T21:12:28.033Z,100239.00
2022-08-21T21:17:55.973Z,100234.00
2022-08-21T21:20:31.005Z,100237.00
2022-08-21T21:23:13.114Z,100223.00
2022-08-21T21:25:52.608Z,100231.00
2022-08-21T21:28:29.013Z,100235.00
2022-08-21T21:31:03.839Z,100231.00
2022-08-21T21:33:48.856Z,100235.00
2022-08-21T21:36:27.010Z,100233.00
2022-08-21T21:39:06.441Z,100242.00
2022-08-21T21:41:44.639Z,100232.00
2022-08-21T21:44:38.339Z,100238.00
2022-08-21T21:47:14.481Z,100230.00
2022-08-21T21:50:04.929Z,100236.00
2022-08-21T21:52:54.937Z,100233.00
2022-08-21T21:55:45.357Z,100241.00
2022-08-21T21:58:47.618Z,100241.00
2022-08-21T22:01:23.814Z,100236.00
2022-08-21T22:04:00.655Z,100242.00
2022-08-21T22:06:43.196Z,100246.00
2022-08-21T22:09:19.691Z,100243.00
2022-08-21T22:12:02.819Z,100243.00
2022-08-21T22:14:36.414Z,100246.00
2022-08-21T22:17:28.295Z,100242.00
2022-08-21T22:19:58.096Z,100247.00
2022-08-21T22:22:30.462Z,100247.00
2022-08-21T22:25:04.821Z,100239.00
2022-08-21T22:27:36.005Z,100237.00
2022-08-21T22:30:09.377Z,100250.00
2022-08-21T22:32:39.899Z,100249.00
2022-08-21T22:35:17.517Z,100247.00
2022-08-21T22:37:50.354Z,100249.00
2022-08-21T22:40:26.295Z,100238.00
2022-08-21T22:43:03.011Z,100241.00
2022-08-21T22:45:32.277Z,100237.00
2022-08-21T22:48:11.154Z,100240.00
2022-08-21T22:50:48.469Z,100236.00
2022-08-21T22:53:29.384Z,100247.00
2022-08-21T22:56:00.413Z,100250.00
2022-08-21T22:58:32.613Z,100239.00
2022-08-21T23:01:05.272Z,100242.00
2022-08-21T23:03:42.225Z,100243.00
2022-08-21T23:06:27.168Z,100248.00
2022-08-21T23:08:58.119Z,100242.00
2022-08-21T23:11:38.101Z,100243.00
2022-08-21T23:14:07.491Z,100236.00
2022-08-21T23:16:53.754Z,100239.00
2022-08-21T23:19:38.285Z,100241.00
2022-08-21T23:22:21.730Z,100238.00
2022-08-21T23:25:05.967Z,100254.00
2022-08-21T23:27:49.042Z,100248.00
2022-08-21T23:30:19.666Z,100245.00
2022-08-21T23:33:09.455Z,100244.00
2022-08-21T23:36:04.297Z,100247.00
2022-08-21T23:38:45.410Z,100244.00
2022-08-21T23:41:34.180Z,100242.00
2022-08-21T23:44:19.246Z,100239.00
2022-08-21T23:47:02.113Z,100242.00
2022-08-21T23:49:44.221Z,100240.00
2022-08-21T23:52:22.994Z,100236.00
2022-08-21T23:55:04.471Z,100245.00
2022-08-21T23:57:48.268Z,100239.00
